Time;durP1;ratioP1;P1;durP2;ratioP2;P2;SDS_P1;SDS_P2;PMS_P1;PMS_P2;Temp;Humidity;BMP_temperature;BMP_pressure;BME280_temperature;BME280_humidity;BME280_pressure;Samples;Min_cycle;Max_cycle;Signal;HPM_P1;HPM_P2
2022/09/16 00:02:15;;;;;;;6.22;2.70;;;;;;;12.75;77.78;99207.88;2183131;80;29734;-62
2022/09/16 00:05:17;;;;;;;7.45;3.02;;;;;;;12.78;77.70;99215.34;2183195;80;27578;-61
2022/09/16 00:08:20;;;;;;;6.37;2.77;;;;;;;12.79;77.65;99209.00;2194962;80;30013;-61
2022/09/16 00:11:22;;;;;;;6.47;2.95;;;;;;;12.80;77.49;99213.40;2175669;80;31373;-61
2022/09/16 00:14:23;;;;;;;6.95;2.60;;;;;;;12.81;77.54;99211.08;2163901;80;34145;-62
2022/09/16 00:17:25;;;;;;;6.28;2.75;;;;;;;12.83;77.43;99215.83;2174922;80;29369;-62
2022/09/16 00:20:27;;;;;;;6.17;2.72;;;;;;;12.84;77.40;99221.58;2167987;80;27668;-62
2022/09/16 00:23:28;;;;;;;9.50;2.58;;;;;;;12.86;77.52;99224.53;2184530;80;29872;-62
2022/09/16 00:26:29;;;;;;;7.35;2.62;;;;;;;12.87;77.43;99234.31;2187039;80;31383;-63
2022/09/16 00:29:31;;;;;;;7.80;2.92;;;;;;;12.84;77.19;99229.17;2174741;80;33721;-62
2022/09/16 00:32:32;;;;;;;5.15;3.55;;;;;;;12.85;77.34;99234.04;2182618;80;29686;-63
2022/09/16 00:35:33;;;;;;;7.30;2.58;;;;;;;12.83;77.25;99234.17;2194248;80;27610;-63
2022/09/16 00:38:34;;;;;;;7.25;2.50;;;;;;;12.83;77.32;99232.83;2174372;80;29625;-62
2022/09/16 00:41:36;;;;;;;5.08;2.45;;;;;;;12.83;77.27;99231.48;2192051;80;32315;-62
2022/09/16 00:44:58;;;;;;;7.78;2.60;;;;;;;12.85;77.36;99228.20;2173351;80;34313;-62
2022/09/16 00:48:04;;;;;;;10.20;3.05;;;;;;;12.87;77.29;99222.22;2182625;80;30139;-62
2022/09/16 00:51:08;;;;;;;7.22;3.20;;;;;;;12.90;77.29;99221.98;2161661;80;27705;-62
2022/09/16 00:54:09;;;;;;;4.25;2.22;;;;;;;12.92;77.30;99225.39;2192046;80;28690;-62
2022/09/16 00:57:12;;;;;;;3.90;2.87;;;;;;;12.95;77.28;99222.97;2170353;80;31070;-62
2022/09/16 01:00:14;;;;;;;9.23;2.87;;;;;;;12.99;77.31;99219.55;2198535;80;34068;-62
2022/09/16 01:03:16;;;;;;;5.70;2.62;;;;;;;12.99;77.29;99225.77;2183084;80;29385;-62
2022/09/16 01:06:18;;;;;;;5.78;2.47;;;;;;;13.00;77.16;99225.30;2179249;80;28201;-62
2022/09/16 01:09:22;;;;;;;7.25;2.08;;;;;;;13.02;77.18;99230.07;2167875;80;29104;-62
2022/09/16 01:12:24;;;;;;;4.75;2.52;;;;;;;13.04;77.06;99229.47;2164101;80;31079;-62
2022/09/16 01:15:42;;;;;;;4.35;2.22;;;;;;;13.05;77.07;99231.19;2171199;80;33614;-62
2022/09/16 01:18:52;;;;;;;4.83;2.00;;;;;;;13.07;76.95;99233.27;2136821;82;29451;-62
2022/09/16 01:22:21;;;;;;;5.42;2.45;;;;;;;13.07;76.83;99237.30;2136240;82;28238;-62
2022/09/16 01:25:43;;;;;;;4.25;2.10;;;;;;;13.09;76.90;99233.98;2127343;82;30061;-62
2022/09/16 01:29:26;;;;;;;7.58;2.10;;;;;;;13.10;76.76;99238.39;2133731;82;32176;-62
2022/09/16 01:32:46;;;;;;;5.70;1.82;;;;;;;13.10;76.83;99238.39;2124677;82;33550;-62
2022/09/16 01:36:29;;;;;;;2.92;1.80;;;;;;;13.11;76.77;99242.79;2131339;82;29354;-62
2022/09/16 01:39:41;;;;;;;5.08;2.02;;;;;;;13.12;76.59;99241.81;2123146;81;27685;-63
2022/09/16 01:43:12;;;;;;;3.75;1.75;;;;;;;13.13;76.60;99240.00;2132824;82;29082;-63
2022/09/16 01:46:43;;;;;;;5.87;1.72;;;;;;;13.14;76.60;99240.38;2121074;82;31153;-62
2022/09/16 01:50:16;;;;;;;6.70;2.08;;;;;;;13.14;76.35;99234.99;2087144;84;33021;-63
2022/09/16 01:53:38;;;;;;;7.53;2.45;;;;;;;13.14;76.35;99234.49;2070224;84;29731;-61
2022/09/16 01:57:01;;;;;;;5.58;1.90;;;;;;;13.16;76.41;99237.92;2095838;82;28226;-62
2022/09/16 02:00:09;;;;;;;7.60;2.00;;;;;;;13.18;76.34;99236.45;2074582;84;30031;-61
2022/09/16 02:03:18;;;;;;;6.97;1.77;;;;;;;13.21;76.43;99240.25;2183272;80;31860;-61
2022/09/16 02:06:24;;;;;;;5.42;2.40;;;;;;;13.22;76.17;99231.20;2169046;80;34102;-61
2022/09/16 02:09:33;;;;;;;5.72;1.80;;;;;;;13.22;76.17;99231.20;2180731;80;29726;-62
2022/09/16 02:12:37;;;;;;;3.22;1.75;;;;;;;13.21;76.13;99238.44;2188232;80;27695;-61
2022/09/16 02:15:39;;;;;;;4.73;1.77;;;;;;;13.21;76.21;99237.09;2189351;80;28672;-61
2022/09/16 02:18:42;;;;;;;3.87;1.82;;;;;;;13.20;76.14;99226.43;2178841;80;31414;-62
2022/09/16 02:21:43;;;;;;;4.65;1.70;;;;;;;13.20;76.14;99226.43;2188447;80;33314;-61
2022/09/16 02:24:46;;;;;;;4.83;1.85;;;;;;;13.19;75.92;99229.63;2177362;80;30270;-61
2022/09/16 02:27:48;;;;;;;6.95;1.87;;;;;;;13.19;75.76;99240.38;2201877;80;28104;-62
2022/09/16 02:30:54;;;;;;;4.80;1.87;;;;;;;13.19;75.76;99240.38;2185976;79;29940;-61
2022/09/16 02:34:04;;;;;;;6.30;1.57;;;;;;;13.20;75.91;99239.87;2185835;80;45625;-62
2022/09/16 02:37:13;;;;;;;6.70;2.12;;;;;;;13.20;75.75;99235.38;2183274;80;33162;-61
2022/09/16 02:40:23;;;;;;;4.33;1.77;;;;;;;13.20;75.89;99243.44;2201492;80;30213;-61
2022/09/16 02:43:25;;;;;;;6.30;1.98;;;;;;;13.21;75.78;99242.94;2179554;80;27648;-61
2022/09/16 02:46:57;;;;;;;5.83;1.70;;;;;;;13.07;75.68;99227.39;2177312;80;29906;-61
2022/09/16 02:50:18;;;;;;;6.20;1.95;;;;;;;13.07;75.68;99227.39;2191564;80;31582;-62
2022/09/16 02:53:44;;;;;;;3.72;1.90;;;;;;;13.21;76.14;99249.19;2087157;83;33030;-62
2022/09/16 02:56:46;;;;;;;6.10;1.75;;;;;;;13.20;76.14;99247.47;2087690;83;29735;-62
2022/09/16 02:59:48;;;;;;;4.92;1.98;;;;;;;13.19;75.95;99251.14;2093105;83;27756;-62
2022/09/16 03:02:49;;;;;;;3.08;1.70;;;;;;;13.20;75.98;99249.29;2080988;83;29190;-62
2022/09/16 03:06:18;;;;;;;5.00;1.47;;;;;;;13.20;75.79;99243.91;2096311;83;30962;-62
2022/09/16 03:09:22;;;;;;;4.25;1.85;;;;;;;13.20;75.72;99243.91;2076007;84;33222;-62
2022/09/16 03:12:40;;;;;;;4.33;1.60;;;;;;;13.20;75.62;99251.51;2087870;84;29950;-62
2022/09/16 03:16:03;;;;;;;5.25;1.92;;;;;;;13.19;75.47;99241.72;2076271;85;27735;-62
2022/09/16 03:19:16;;;;;;;2.72;1.70;;;;;;;13.21;75.46;99249.66;2056207;85;28734;-62
2022/09/16 03:22:28;;;;;;;8.23;2.27;;;;;;;13.22;75.41;99255.41;2072302;85;30966;-62
2022/09/16 03:26:16;;;;;;;5.45;1.80;;;;;;;13.22;75.43;99246.00;2072192;85;33340;-61
2022/09/16 03:29:47;;;;;;;2.22;1.60;;;;;;;13.22;75.50;99253.59;2059719;85;29727;-61
2022/09/16 03:32:57;;;;;;;5.75;1.37;;;;;;;13.24;75.63;99256.66;2091202;84;27803;-62
2022/09/16 03:36:04;;;;;;;6.30;1.20;;;;;;;13.24;75.53;99259.34;2096037;84;29292;-62
2022/09/16 03:39:06;;;;;;;6.42;1.42;;;;;;;13.24;75.72;99258.84;2096620;84;31093;-62
2022/09/16 03:42:10;;;;;;;2.55;1.32;;;;;;;13.24;75.89;99258.84;2098825;84;34162;-62
2022/09/16 03:45:19;;;;;;;4.60;1.52;;;;;;;13.22;75.77;99258.09;2098734;84;30854;-62
2022/09/16 03:48:20;;;;;;;2.52;1.40;;;;;;;13.20;75.87;99260.92;2097644;84;27759;-62
2022/09/16 03:51:23;;;;;;;6.15;1.40;;;;;;;13.21;76.16;99253.22;2084458;84;29152;-62
2022/09/16 03:54:25;;;;;;;3.17;1.45;;;;;;;13.20;76.20;99251.98;2095746;83;31042;-62
2022/09/16 03:57:29;;;;;;;4.78;1.32;;;;;;;13.19;76.21;99255.64;2092870;83;34146;-62
2022/09/16 04:00:30;;;;;;;5.10;1.40;;;;;;;13.16;76.08;99255.41;2083143;83;29106;-62
2022/09/16 04:03:31;;;;;;;3.87;1.57;;;;;;;13.15;76.17;99256.38;2102424;83;27907;-62
2022/09/16 04:06:32;;;;;;;1.30;1.15;;;;;;;13.16;76.25;99258.56;2115665;83;29874;-62
2022/09/16 04:09:36;;;;;;;5.17;1.60;;;;;;;13.14;76.39;99251.97;2111143;83;31484;-62
2022/09/16 04:12:37;;;;;;;3.67;1.70;;;;;;;13.15;76.33;99252.34;2109951;83;34131;-62
2022/09/16 04:15:38;;;;;;;8.95;1.50;;;;;;;13.15;76.36;99255.53;2105989;83;29673;-61
2022/09/16 04:18:39;;;;;;;5.00;1.45;;;;;;;13.16;76.62;99254.06;2106293;83;27725;-61
2022/09/16 04:21:41;;;;;;;3.30;1.82;;;;;;;13.16;76.72;99246.46;2085410;83;29066;-62
2022/09/16 04:24:43;;;;;;;4.67;2.30;;;;;;;13.15;76.55;99253.69;2093876;83;31118;-62
2022/09/16 04:27:44;;;;;;;3.72;1.77;;;;;;;13.15;76.61;99256.88;2103162;83;34181;-62
2022/09/16 04:30:45;;;;;;;6.85;2.30;;;;;;;13.14;76.59;99270.80;2106458;83;30117;-62
2022/09/16 04:33:48;;;;;;;6.60;1.95;;;;;;;13.14;76.99;99282.05;2109716;83;27860;-63
2022/09/16 04:36:49;;;;;;;5.78;2.55;;;;;;;13.10;77.13;99271.16;2106158;83;29868;-62
2022/09/16 04:39:52;;;;;;;5.53;1.60;;;;;;;13.04;77.17;99276.52;2107436;83;30959;-62
2022/09/16 04:42:53;;;;;;;2.95;1.60;;;;;;;12.99;77.32;99274.66;2112291;83;32994;-63
2022/09/16 04:45:55;;;;;;;2.65;1.60;;;;;;;12.95;77.49;99270.48;2110984;83;29092;-64
2022/09/16 04:48:58;;;;;;;3.47;1.42;;;;;;;12.92;77.65;99268.90;2110409;83;28197;-63
2022/09/16 04:52:00;;;;;;;1.35;1.00;;;;;;;12.87;77.65;99265.23;2039602;86;29521;-62
2022/09/16 04:55:01;;;;;;;4.05;1.22;;;;;;;12.79;77.61;99264.94;2108760;83;32197;-62
2022/09/16 04:58:03;;;;;;;2.50;1.37;;;;;;;12.73;77.59;99266.26;2108029;83;33465;-62
2022/09/16 05:01:11;;;;;;;3.98;1.82;;;;;;;12.68;77.86;99270.27;2112091;83;29463;-63
2022/09/16 05:04:14;;;;;;;4.67;1.42;;;;;;;12.63;77.81;99263.91;2090834;83;27662;-62
2022/09/16 05:07:15;;;;;;;3.30;1.50;;;;;;;12.60;78.03;99265.47;2114120;83;29394;-62
2022/09/16 05:10:16;;;;;;;3.17;1.65;;;;;;;12.54;78.21;99261.42;2119150;83;32273;-63
2022/09/16 05:13:17;;;;;;;2.58;1.35;;;;;;;12.55;78.39;99260.92;2109616;83;32916;-63
2022/09/16 05:16:21;;;;;;;3.02;1.40;;;;;;;12.54;78.47;99269.48;2110159;83;30455;-64
2022/09/16 05:19:26;;;;;;;2.70;1.60;;;;;;;12.55;78.64;99276.57;2103086;83;28339;-61
2022/09/16 05:22:27;;;;;;;4.30;1.85;;;;;;;12.55;78.62;99272.55;2092097;83;29895;-61
2022/09/16 05:25:28;;;;;;;3.52;1.95;;;;;;;12.54;78.50;99264.58;2112566;83;32401;-61
2022/09/16 05:28:30;;;;;;;5.10;1.80;;;;;;;12.55;78.68;99271.67;2095964;83;34116;-61
2022/09/16 05:31:36;;;;;;;3.33;1.85;;;;;;;12.54;78.74;99266.80;2114628;83;29755;-61
2022/09/16 05:34:39;;;;;;;2.35;1.87;;;;;;;12.54;78.83;99266.80;2117807;83;27690;-62
2022/09/16 05:37:40;;;;;;;5.15;1.72;;;;;;;12.54;78.87;99271.30;2111626;83;29996;-62
2022/09/16 05:40:41;;;;;;;4.58;2.00;;;;;;;12.54;78.90;99271.30;2098395;83;31041;-62
2022/09/16 05:43:46;;;;;;;3.70;2.25;;;;;;;12.55;79.02;99272.55;2094910;83;33365;-62
2022/09/16 05:47:02;;;;;;;3.15;2.12;;;;;;;12.60;79.18;99277.56;2051774;85;29380;-63
2022/09/16 05:50:12;;;;;;;4.03;2.25;;;;;;;12.65;79.34;99277.21;2097726;83;27617;-62
2022/09/16 05:53:15;;;;;;;5.80;2.70;;;;;;;12.68;79.47;99273.80;2077783;83;28330;-62
2022/09/16 05:56:24;;;;;;;3.22;2.17;;;;;;;12.73;79.66;99270.80;2040041;87;31075;-62
2022/09/16 05:59:26;;;;;;;4.50;2.85;;;;;;;12.82;80.02;99268.73;2101274;83;34025;-62
2022/09/16 06:02:27;;;;;;;7.97;2.95;;;;;;;13.03;80.41;99266.73;2100375;83;29254;-62
2022/09/16 06:05:28;;;;;;;7.50;3.15;;;;;;;13.20;80.43;99256.89;2102737;83;27609;-63
2022/09/16 06:08:33;;;;;;;5.17;2.95;;;;;;;13.37;80.44;99271.70;2178938;80;28709;-62
2022/09/16 06:11:41;;;;;;;4.15;2.90;;;;;;;13.52;80.22;99273.72;2208523;80;31038;-62
2022/09/16 06:14:43;;;;;;;6.00;2.83;;;;;;;13.68;80.17;99273.85;2187051;80;33128;-61
2022/09/16 06:17:44;;;;;;;3.00;2.60;;;;;;;13.80;80.04;99270.17;2180833;80;29440;-61
2022/09/16 06:20:46;;;;;;;5.80;3.50;;;;;;;13.92;79.91;99274.20;2179937;80;27674;-61
2022/09/16 06:23:47;;;;;;;3.62;3.17;;;;;;;14.09;80.22;99271.00;2190851;80;29859;-61
2022/09/16 06:26:49;;;;;;;5.15;3.17;;;;;;;14.37;80.50;99249.03;2188814;80;32216;-62
2022/09/16 06:29:50;;;;;;;4.87;2.62;;;;;;;14.37;80.50;99249.03;2177370;80;33381;-61
2022/09/16 06:32:51;;;;;;;6.35;2.77;;;;;;;14.64;79.96;99274.19;2202671;80;29342;-63
2022/09/16 06:35:52;;;;;;;5.72;2.55;;;;;;;14.82;80.00;99255.64;2203803;80;27508;-62
2022/09/16 06:38:55;;;;;;;3.95;3.02;;;;;;;15.11;80.15;99267.64;2165119;80;29873;-62
2022/09/16 06:41:56;;;;;;;4.85;2.92;;;;;;;15.45;79.83;99257.98;2204154;80;31418;-62
2022/09/16 06:44:57;;;;;;;6.67;3.10;;;;;;;15.75;79.07;99251.75;2192958;80;34135;-62
2022/09/16 06:47:59;;;;;;;5.33;3.40;;;;;;;16.09;79.10;99253.31;2189321;80;29699;-62
2022/09/16 06:51:12;;;;;;;3.70;2.77;;;;;;;16.36;78.41;99248.61;2173840;80;27718;-62
2022/09/16 06:54:14;;;;;;;4.10;2.58;;;;;;;16.63;77.75;99255.69;2184669;80;28795;-62
2022/09/16 06:57:19;;;;;;;8.05;3.10;;;;;;;16.92;77.23;99262.47;2189059;80;32050;-62
2022/09/16 07:00:20;;;;;;;4.60;2.83;;;;;;;17.09;76.54;99253.30;2195445;80;33778;-62
2022/09/16 07:03:22;;;;;;;5.45;2.60;;;;;;;17.35;75.82;99259.45;2177204;80;29343;-63
2022/09/16 07:06:28;;;;;;;3.67;2.90;;;;;;;17.56;75.27;99259.24;2187602;80;27745;-62
2022/09/16 07:09:31;;;;;;;6.60;2.80;;;;;;;17.74;74.21;99261.53;2191070;80;28660;-62
2022/09/16 07:12:33;;;;;;;3.22;2.40;;;;;;;17.96;73.86;99264.88;2183550;80;31897;-63
2022/09/16 07:15:35;;;;;;;5.60;2.37;;;;;;;18.20;73.41;99262.17;2188827;80;34326;-64
2022/09/16 07:18:38;;;;;;;7.95;2.35;;;;;;;18.54;73.14;99268.28;2177563;80;30520;-63
2022/09/16 07:21:40;;;;;;;2.47;1.90;;;;;;;18.76;71.91;99275.63;2175658;80;28257;-63
2022/09/16 07:24:42;;;;;;;7.12;2.83;;;;;;;19.01;71.80;99269.95;2174959;80;29573;-62
2022/09/16 07:27:47;;;;;;;5.08;2.15;;;;;;;19.18;71.30;99267.38;2188765;80;31651;-63
2022/09/16 07:30:48;;;;;;;4.80;1.92;;;;;;;19.25;70.65;99268.47;2204269;80;33891;-63
2022/09/16 07:33:54;;;;;;;5.90;1.87;;;;;;;19.24;69.85;99269.47;2186589;80;29677;-62
2022/09/16 07:36:55;;;;;;;6.25;1.82;;;;;;;19.16;69.62;99268.03;2176293;80;27743;-65
2022/09/16 07:39:57;;;;;;;3.55;2.12;;;;;;;19.12;68.75;99270.22;2179168;80;29614;-63
2022/09/16 07:42:58;;;;;;;5.62;2.00;;;;;;;18.98;67.82;99268.91;2101947;83;31393;-64
2022/09/16 07:45:59;;;;;;;4.87;1.80;;;;;;;18.85;68.39;99274.72;2133308;83;34507;-65
2022/09/16 07:49:04;;;;;;;4.62;2.00;;;;;;;18.95;68.56;99270.08;2140427;83;30517;-64
2022/09/16 07:52:05;;;;;;;4.22;2.15;;;;;;;19.15;68.31;99269.04;2148126;82;27850;-66
2022/09/16 07:55:08;;;;;;;4.65;1.87;;;;;;;19.24;67.78;99268.95;2133669;82;29914;-64
2022/09/16 07:58:10;;;;;;;2.47;1.60;;;;;;;19.42;67.97;99273.01;2105779;83;31881;-64
2022/09/16 08:01:17;;;;;;;4.90;1.87;;;;;;;19.50;67.01;99279.00;2105039;83;34255;-64
2022/09/16 08:04:20;;;;;;;5.05;1.92;;;;;;;19.44;66.30;99286.42;2117788;83;29339;-62
2022/09/16 08:07:21;;;;;;;5.25;2.25;;;;;;;19.39;66.33;99278.75;2093975;83;27721;-65
2022/09/16 08:10:22;;;;;;;6.15;1.98;;;;;;;19.40;65.78;99278.23;2100640;83;28550;-64
2022/09/16 08:13:25;;;;;;;5.15;1.55;;;;;;;19.37;65.07;99278.54;2100969;83;31065;-64
2022/09/16 08:16:27;;;;;;;4.92;1.82;;;;;;;19.33;64.97;99280.73;2100941;83;35270;-63
2022/09/16 08:19:29;;;;;;;5.15;1.70;;;;;;;19.31;64.90;99273.77;2099813;83;29363;-64
2022/09/16 08:22:30;;;;;;;5.72;1.55;;;;;;;19.39;64.90;99281.47;2115026;84;27677;-64
2022/09/16 08:25:32;;;;;;;6.45;2.00;;;;;;;19.51;63.54;99276.63;2168346;80;29999;-63
2022/09/16 08:28:33;;;;;;;4.25;1.72;;;;;;;19.60;63.90;99276.18;2171386;80;32175;-64
2022/09/16 08:31:36;;;;;;;1.67;1.27;;;;;;;19.79;64.12;99275.09;2170319;80;32989;-64
2022/09/16 08:34:38;;;;;;;3.47;1.70;;;;;;;20.07;63.91;99272.72;2182886;80;29727;-64
2022/09/16 08:37:43;;;;;;;5.05;1.65;;;;;;;20.25;63.54;99265.31;2174268;79;27651;-64
2022/09/16 08:40:45;;;;;;;4.78;1.67;;;;;;;20.38;62.65;99271.63;2179328;80;28813;-64
2022/09/16 08:44:25;;;;;;;3.87;1.40;;;;;;;20.46;62.12;99269.44;2166430;80;31969;-64
2022/09/16 08:48:06;;;;;;;3.98;1.65;;;;;;;20.34;61.17;99281.99;2168404;80;32910;-65
2022/09/16 08:51:14;;;;;;;6.70;1.62;;;;;;;20.15;59.85;99274.96;2158937;80;27742;-66
2022/09/16 08:54:32;;;;;;;2.65;1.80;;;;;;;20.26;61.30;99276.54;2173987;80;27871;-64
2022/09/16 08:57:42;;;;;;;3.40;1.72;;;;;;;20.38;61.11;99278.95;2190246;80;29103;-65
2022/09/16 09:00:48;;;;;;;7.10;1.90;;;;;;;20.63;61.34;99277.98;2183063;80;32069;-64
2022/09/16 09:03:50;;;;;;;2.35;1.17;;;;;;;20.90;60.93;99275.16;2175994;80;34051;-64
2022/09/16 09:07:26;;;;;;;2.20;0.88;;;;;;;21.01;60.28;99261.73;2195520;80;30077;-66
2022/09/16 09:10:36;;;;;;;3.77;1.10;;;;;;;21.25;59.79;99271.77;2153064;81;28162;-65
2022/09/16 09:13:49;;;;;;;8.40;1.57;;;;;;;21.42;58.66;99273.12;2166793;81;28699;-64
2022/09/16 09:17:06;;;;;;;2.02;1.15;;;;;;;21.43;58.09;99276.19;2139422;81;31028;-66
2022/09/16 09:20:28;;;;;;;2.50;1.22;;;;;;;21.47;57.57;99270.74;2152338;81;34309;-66
2022/09/16 09:24:01;;;;;;;3.35;1.02;;;;;;;21.47;57.98;99268.85;2135525;81;29700;-65
2022/09/16 09:27:17;;;;;;;4.67;1.20;;;;;;;21.53;57.42;99274.12;2149244;81;27736;-65
